createdAt,value
2023-08-12T00:02:09.293Z,101097.94
2023-08-12T00:04:38.672Z,101106.09
2023-08-12T00:07:07.437Z,101102.63
2023-08-12T00:09:36.454Z,101102.06
2023-08-12T00:12:06.115Z,101104.19
2023-08-12T00:14:35.243Z,101113.22
2023-08-12T00:17:04.689Z,101104.97
2023-08-12T00:19:35.141Z,101109.53
2023-08-12T00:22:05.736Z,101115.88
2023-08-12T00:24:34.859Z,101105.50
2023-08-12T00:27:03.580Z,101106.28
2023-08-12T00:29:32.619Z,101105.31
2023-08-12T00:32:01.966Z,101108.50
2023-08-12T00:34:31.155Z,101099.59
2023-08-12T00:37:01.553Z,101106.69
2023-08-12T00:39:30.631Z,101105.13
2023-08-12T00:41:59.359Z,101103.13
2023-08-12T00:44:28.492Z,101102.88
2023-08-12T00:46:57.397Z,101105.00
2023-08-12T00:49:30.155Z,101104.28
2023-08-12T00:52:00.856Z,101096.22
2023-08-12T00:54:31.166Z,101100.91
2023-08-12T00:57:01.456Z,101100.59
2023-08-12T00:59:31.225Z,101104.31
2023-08-12T01:02:00.195Z,101103.25
2023-08-12T01:04:30.133Z,101099.34
2023-08-12T01:07:00.372Z,101092.13
2023-08-12T01:09:30.932Z,101098.59
2023-08-12T01:12:08.980Z,101103.81
2023-08-12T01:14:58.340Z,101097.84
2023-08-12T01:17:31.099Z,101096.88
2023-08-12T01:20:04.235Z,101102.06
2023-08-12T01:22:37.946Z,101097.84
2023-08-12T01:25:09.705Z,101093.09
2023-08-12T01:27:38.701Z,101093.50
2023-08-12T01:30:12.230Z,101093.41
2023-08-12T01:32:50.257Z,101098.50
2023-08-12T01:35:26.231Z,101090.75
2023-08-12T01:37:58.060Z,101093.34
2023-08-12T01:40:33.648Z,101095.47
2023-08-12T01:43:04.501Z,101093.53
2023-08-12T01:45:34.051Z,101095.47
2023-08-12T01:48:05.134Z,101097.13
2023-08-12T01:50:34.406Z,101100.41
2023-08-12T01:53:03.411Z,101093.66
2023-08-12T01:55:34.117Z,101096.50
2023-08-12T01:58:03.039Z,101087.00
2023-08-12T02:00:33.012Z,101093.97
2023-08-12T02:03:01.975Z,101094.41
2023-08-12T02:05:31.211Z,101086.69
2023-08-12T02:08:00.148Z,101096.31
2023-08-12T02:10:29.249Z,101099.56
2023-08-12T02:12:59.283Z,101096.94
2023-08-12T02:15:28.438Z,101099.88
2023-08-12T02:17:57.271Z,101097.13
2023-08-12T02:20:26.711Z,101093.75
2023-08-12T02:22:55.452Z,101095.88
2023-08-12T02:25:24.587Z,101096.06
2023-08-12T02:27:53.333Z,101092.69
2023-08-12T02:30:24.159Z,101095.66
2023-08-12T02:32:53.027Z,101096.84
2023-08-12T02:35:23.150Z,101096.59
2023-08-12T02:37:51.912Z,101091.22
2023-08-12T02:40:21.024Z,101091.41
2023-08-12T02:42:50.006Z,101106.44
2023-08-12T02:45:21.378Z,101099.34
2023-08-12T02:47:51.600Z,101097.78
2023-08-12T02:50:20.727Z,101105.19
2023-08-12T02:52:49.431Z,101108.84
2023-08-12T02:55:18.941Z,101107.47
2023-08-12T02:57:47.750Z,101115.75
2023-08-12T03:00:18.275Z,101114.91
2023-08-12T03:02:47.293Z,101111.63
2023-08-12T03:05:18.451Z,101111.84
2023-08-12T03:07:47.406Z,101119.97
2023-08-12T03:10:16.596Z,101112.22
2023-08-12T03:12:45.708Z,101113.31
2023-08-12T03:15:15.013Z,101119.41
2023-08-12T03:17:43.940Z,101122.47
2023-08-12T03:20:14.036Z,101127.19
2023-08-12T03:22:45.229Z,101122.78
2023-08-12T03:25:16.136Z,101117.91
2023-08-12T03:27:46.701Z,101125.63
2023-08-12T03:30:16.320Z,101131.66
2023-08-12T03:32:46.528Z,101127.34
2023-08-12T03:35:19.259Z,101129.44
2023-08-12T03:37:52.368Z,101130.72
2023-08-12T03:40:21.975Z,101135.31
2023-08-12T03:42:51.659Z,101139.78
2023-08-12T03:45:24.649Z,101131.59
2023-08-12T03:47:54.005Z,101139.13
2023-08-12T03:50:24.115Z,101131.94
2023-08-12T03:52:54.374Z,101137.97
2023-08-12T03:55:23.760Z,101133.44
2023-08-12T03:57:53.107Z,101139.81
2023-08-12T04:00:23.247Z,101140.56
2023-08-12T04:02:56.794Z,101133.16
2023-08-12T04:05:26.003Z,101146.38
2023-08-12T04:07:57.146Z,101141.00
2023-08-12T04:10:26.400Z,101137.28
2023-08-12T04:12:55.806Z,101139.00
2023-08-12T04:15:25.204Z,101142.41
2023-08-12T04:17:54.102Z,101131.59
2023-08-12T04:20:23.528Z,101138.28
2023-08-12T04:22:52.595Z,101136.16
2023-08-12T04:25:23.896Z,101126.97
2023-08-12T04:27:53.607Z,101135.94
2023-08-12T04:30:23.916Z,101132.03
2023-08-12T04:32:52.855Z,101135.19
2023-08-12T04:39:54.973Z,101128.31
2023-08-12T04:42:25.523Z,101126.84
2023-08-12T04:44:54.867Z,101127.66
2023-08-12T04:47:24.033Z,101130.72
2023-08-12T04:49:54.584Z,101132.84
2023-08-12T04:52:23.549Z,101133.88
2023-08-12T04:54:55.679Z,101134.91
2023-08-12T04:57:28.406Z,101132.28
2023-08-12T04:59:57.679Z,101120.22
2023-08-12T05:02:27.493Z,101122.28
2023-08-12T05:04:57.534Z,101122.44
2023-08-12T05:07:26.462Z,101122.47
2023-08-12T05:09:56.928Z,101115.31
2023-08-12T05:12:28.280Z,101123.34
2023-08-12T05:14:57.442Z,101122.50
2023-08-12T05:17:26.657Z,101114.47
2023-08-12T05:19:56.142Z,101119.06
2023-08-12T05:22:25.407Z,101118.09
2023-08-12T05:24:54.608Z,101114.47
2023-08-12T05:27:23.668Z,101116.66
2023-08-12T05:29:54.273Z,101114.84
2023-08-12T05:32:23.067Z,101110.72
2023-08-12T05:34:54.401Z,101119.16
2023-08-12T05:37:23.221Z,101114.75
2023-08-12T05:39:52.168Z,101120.22
2023-08-12T05:42:20.996Z,101117.78
2023-08-12T05:44:50.062Z,101123.50
2023-08-12T05:47:20.126Z,101106.69
2023-08-12T05:49:49.212Z,101109.31
2023-08-12T05:52:18.129Z,101114.50
2023-08-12T05:54:47.234Z,101110.03
2023-08-12T05:57:16.051Z,101117.88
2023-08-12T05:59:45.102Z,101113.53
2023-08-12T06:02:14.084Z,101113.19
2023-08-12T06:04:44.740Z,101112.66
2023-08-12T06:07:13.537Z,101116.66
2023-08-12T06:09:42.617Z,101118.81
2023-08-12T06:12:11.673Z,101113.50
2023-08-12T06:14:41.065Z,101119.56
2023-08-12T06:17:09.916Z,101115.03
2023-08-12T06:19:38.990Z,101121.38
2023-08-12T06:22:09.263Z,101115.56
2023-08-12T06:24:38.431Z,101121.84
2023-08-12T06:27:07.656Z,101118.06
2023-08-12T06:29:36.799Z,101118.53
2023-08-12T06:32:05.770Z,101124.81
2023-08-12T06:34:34.797Z,101131.63
2023-08-12T06:37:03.680Z,101125.69
2023-08-12T06:39:34.080Z,101124.22
2023-08-12T06:42:02.899Z,101123.19
2023-08-12T06:44:32.954Z,101119.88
2023-08-12T06:47:01.761Z,101124.25
2023-08-12T06:49:30.849Z,101122.47
2023-08-12T06:51:59.776Z,101116.84
2023-08-12T06:54:28.918Z,101120.66
2023-08-12T06:56:59.082Z,101119.16
2023-08-12T06:59:28.145Z,101119.81
2023-08-12T07:01:57.003Z,101120.56
2023-08-12T07:04:27.289Z,101115.03
2023-08-12T07:06:56.149Z,101119.41
2023-08-12T07:09:25.175Z,101126.94
2023-08-12T07:11:54.110Z,101128.09
2023-08-12T07:14:24.549Z,101119.72
2023-08-12T07:16:53.568Z,101123.41
2023-08-12T07:19:23.014Z,101116.72
2023-08-12T07:21:51.832Z,101120.72
2023-08-12T07:24:21.014Z,101112.31
2023-08-12T07:26:49.860Z,101117.22
2023-08-12T07:29:18.881Z,101108.66
2023-08-12T07:31:49.190Z,101116.69
2023-08-12T07:34:18.374Z,101109.31
2023-08-12T07:36:47.316Z,101103.59
2023-08-12T07:39:16.473Z,101106.97
2023-08-12T07:41:45.392Z,101106.63
2023-08-12T07:44:14.577Z,101103.94
2023-08-12T07:46:43.356Z,101099.13
2023-08-12T07:49:13.988Z,101091.50
2023-08-12T07:51:42.857Z,101091.50
2023-08-12T07:54:11.957Z,101090.75
2023-08-12T07:56:40.766Z,101089.22
2023-08-12T07:59:11.564Z,101080.44
2023-08-12T08:01:40.470Z,101085.13
2023-08-12T08:04:09.554Z,101090.66
2023-08-12T08:06:39.860Z,101084.16
2023-08-12T08:09:09.110Z,101085.91
2023-08-12T08:11:37.930Z,101086.03
2023-08-12T08:14:07.124Z,101082.97
2023-08-12T08:16:36.119Z,101081.91
2023-08-12T08:19:05.531Z,101079.84
2023-08-12T08:21:34.562Z,101080.19
2023-08-12T08:24:05.469Z,101081.91
2023-08-12T08:26:34.414Z,101076.84
2023-08-12T08:29:04.195Z,101068.09
2023-08-12T08:31:32.995Z,101073.78
2023-08-12T08:34:02.214Z,101074.47
2023-08-12T08:36:31.086Z,101066.09
2023-08-12T08:39:00.199Z,101074.16
2023-08-12T08:41:33.685Z,101071.97
2023-08-12T08:44:05.452Z,101064.72
2023-08-12T08:46:34.432Z,101068.25
2023-08-12T08:49:04.504Z,101065.94
2023-08-12T08:51:34.157Z,101066.50
2023-08-12T08:54:06.417Z,101064.16
2023-08-12T08:56:37.739Z,101065.09
2023-08-12T08:59:12.013Z,101064.84
2023-08-12T09:01:42.390Z,101064.09
2023-08-12T09:04:13.292Z,101066.75
2023-08-12T09:06:43.788Z,101061.81
2023-08-12T09:09:18.487Z,101061.63
2023-08-12T09:11:50.181Z,101059.13
2023-08-12T09:14:19.654Z,101061.09
2023-08-12T09:16:48.512Z,101053.91
2023-08-12T09:19:17.943Z,101041.06
2023-08-12T09:21:54.409Z,101039.34
2023-08-12T09:24:27.044Z,101043.44
2023-08-12T09:26:57.695Z,101034.72
2023-08-12T09:29:32.149Z,101040.06
2023-08-12T09:32:14.204Z,101039.56
2023-08-12T09:34:49.880Z,101037.97
2023-08-12T09:37:19.398Z,101029.75
2023-08-12T09:39:50.416Z,101029.34
2023-08-12T09:42:21.336Z,101035.59
2023-08-12T09:44:50.465Z,101032.97
2023-08-12T09:47:19.415Z,101028.91
2023-08-12T09:49:48.527Z,101030.59
2023-08-12T09:52:18.686Z,101031.47
2023-08-12T09:54:49.236Z,101022.25
2023-08-12T09:57:23.961Z,101018.81
2023-08-12T09:59:56.246Z,101019.31
2023-08-12T10:02:26.640Z,101008.50
2023-08-12T10:04:59.061Z,101010.88
2023-08-12T10:07:28.561Z,101006.59
2023-08-12T10:09:58.543Z,101007.00
2023-08-12T10:12:29.029Z,101003.91
2023-08-12T10:14:59.803Z,100998.34
2023-08-12T10:17:42.763Z,101000.09
2023-08-12T10:20:16.793Z,101005.09
2023-08-12T10:22:46.977Z,101004.91
2023-08-12T10:25:17.070Z,101009.88
2023-08-12T10:27:47.423Z,101008.00
2023-08-12T10:30:16.964Z,100996.78
2023-08-12T10:32:47.626Z,100995.94
2023-08-12T10:35:16.783Z,100998.81
2023-08-12T10:37:52.589Z,100989.56
2023-08-12T10:40:25.346Z,100990.81
2023-08-12T10:42:55.682Z,100980.16
2023-08-12T10:45:25.101Z,100983.16
2023-08-12T10:48:17.437Z,100974.44
2023-08-12T10:50:48.435Z,100972.28
2023-08-12T10:53:30.682Z,100975.91
2023-08-12T10:56:03.124Z,100969.41
2023-08-12T10:58:43.007Z,100968.25
2023-08-12T11:01:18.821Z,100961.81
2023-08-12T11:03:50.108Z,100967.44
2023-08-12T11:06:21.748Z,100956.81
2023-08-12T11:08:54.961Z,100955.94
2023-08-12T11:11:26.181Z,100951.03
2023-08-12T11:13:59.146Z,100945.22
2023-08-12T11:16:37.768Z,100944.84
2023-08-12T11:19:08.131Z,100952.41
2023-08-12T11:21:39.352Z,100943.75
2023-08-12T11:24:09.329Z,100944.09
2023-08-12T11:26:43.620Z,100933.06
2023-08-12T11:29:14.678Z,100936.34
2023-08-12T11:31:43.945Z,100936.16
2023-08-12T11:34:14.044Z,100935.44
2023-08-12T11:36:44.342Z,100933.03
2023-08-12T11:39:13.154Z,100933.16
2023-08-12T11:41:42.188Z,100929.31
2023-08-12T11:44:18.792Z,100930.97
2023-08-12T11:46:48.019Z,100933.59
2023-08-12T11:49:16.839Z,100926.06
2023-08-12T11:51:49.818Z,100921.03
2023-08-12T11:54:19.022Z,100918.78
2023-08-12T11:56:48.777Z,100917.97
2023-08-12T11:59:19.002Z,100916.69
2023-08-12T12:01:52.322Z,100915.63
2023-08-12T12:04:23.865Z,100912.59
2023-08-12T12:06:52.963Z,100916.06
2023-08-12T12:09:22.434Z,100915.38
2023-08-12T12:11:55.440Z,100905.75
2023-08-12T12:14:26.989Z,100901.81
2023-08-12T12:16:56.215Z,100896.88
2023-08-12T12:19:25.854Z,100895.84
2023-08-12T12:21:55.935Z,100895.25
2023-08-12T12:24:24.832Z,100890.03
2023-08-12T12:26:54.208Z,100885.19
2023-08-12T12:29:23.187Z,100874.75
2023-08-12T12:31:53.673Z,100870.50
2023-08-12T12:34:22.861Z,100872.19
2023-08-12T12:36:51.866Z,100880.00
2023-08-12T12:39:20.859Z,100880.59
2023-08-12T12:41:49.943Z,100870.94
2023-08-12T12:44:18.738Z,100868.06
2023-08-12T12:46:47.878Z,100863.91
2023-08-12T12:49:18.080Z,100864.50
2023-08-12T12:51:47.216Z,100859.31
2023-08-12T12:54:16.014Z,100858.53
2023-08-12T12:56:45.199Z,100863.47
2023-08-12T12:59:15.736Z,100846.88
2023-08-12T13:01:45.026Z,100853.34
2023-08-12T13:04:13.806Z,100856.06
2023-08-12T13:06:44.685Z,100852.94
2023-08-12T13:09:14.721Z,100851.47
2023-08-12T13:11:43.812Z,100848.50
2023-08-12T13:14:12.576Z,100846.25
2023-08-12T13:16:41.774Z,100849.38
2023-08-12T13:19:10.613Z,100844.00
2023-08-12T13:21:39.701Z,100846.25
2023-08-12T13:24:09.990Z,100846.25
2023-08-12T13:26:39.184Z,100841.06
2023-08-12T13:29:08.082Z,100836.50
2023-08-12T13:31:37.304Z,100839.44
2023-08-12T13:34:06.337Z,100836.72
2023-08-12T13:36:35.412Z,100833.97
2023-08-12T13:39:04.364Z,100837.91
2023-08-12T13:41:34.956Z,100833.59
2023-08-12T13:44:04.665Z,100827.94
2023-08-12T13:46:33.789Z,100823.38
2023-08-12T13:49:02.505Z,100823.59
2023-08-12T13:51:33.053Z,100831.34
2023-08-12T13:54:02.064Z,100823.25
2023-08-12T13:56:32.444Z,100819.28
2023-08-12T13:59:02.738Z,100812.84
2023-08-12T14:01:31.900Z,100814.91
2023-08-12T14:04:00.688Z,100810.19
2023-08-12T14:06:29.988Z,100809.31
2023-08-12T14:08:58.888Z,100802.47
2023-08-12T14:11:28.022Z,100809.34
2023-08-12T14:13:59.738Z,100803.31
2023-08-12T14:16:30.267Z,100805.38
2023-08-12T14:18:59.145Z,100798.72
2023-08-12T14:21:28.282Z,100793.31
2023-08-12T14:23:57.106Z,100798.31
2023-08-12T14:26:26.196Z,100794.16
2023-08-12T14:28:55.032Z,100789.56
2023-08-12T14:31:24.091Z,100787.69
2023-08-12T14:33:54.185Z,100785.19
2023-08-12T14:36:23.241Z,100782.06
2023-08-12T14:38:53.140Z,100785.00
2023-08-12T14:41:22.282Z,100786.25
2023-08-12T14:43:51.159Z,100785.22
2023-08-12T14:46:20.329Z,100786.25
2023-08-12T14:48:49.081Z,100771.50
2023-08-12T14:51:19.557Z,100778.56
2023-08-12T14:53:49.108Z,100773.97
2023-08-12T14:56:18.554Z,100769.19
2023-08-12T14:58:47.350Z,100766.94
2023-08-12T15:01:17.410Z,100770.88
2023-08-12T15:03:46.466Z,100766.09
2023-08-12T15:06:15.976Z,100773.56
2023-08-12T15:08:46.202Z,100772.75
2023-08-12T15:11:15.325Z,100766.91
2023-08-12T15:13:44.259Z,100770.84
2023-08-12T15:16:13.499Z,100764.44
2023-08-12T15:18:43.615Z,100760.88
2023-08-12T15:21:12.749Z,100766.47
2023-08-12T15:23:41.490Z,100762.06
2023-08-12T15:26:12.235Z,100762.53
2023-08-12T15:28:41.250Z,100750.72
2023-08-12T15:31:10.337Z,100749.25
2023-08-12T15:33:39.280Z,100754.22
2023-08-12T15:36:08.584Z,100749.47
2023-08-12T15:38:38.085Z,100740.53
2023-08-12T15:41:17.002Z,100740.34
2023-08-12T15:43:46.302Z,100740.53
2023-08-12T15:46:15.691Z,100741.16
2023-08-12T15:48:44.663Z,100734.69
2023-08-12T15:51:13.732Z,100737.84
2023-08-12T15:53:42.683Z,100736.56
2023-08-12T15:56:11.823Z,100737.84
2023-08-12T15:58:41.982Z,100739.28
2023-08-12T16:01:12.016Z,100733.06
2023-08-12T16:03:41.042Z,100728.47
2023-08-12T16:06:10.241Z,100729.25
2023-08-12T16:08:39.847Z,100723.66
2023-08-12T16:11:08.900Z,100724.84
2023-08-12T16:13:37.874Z,100727.66
2023-08-12T16:16:08.368Z,100720.97
2023-08-12T16:18:37.222Z,100711.84
2023-08-12T16:21:06.311Z,100718.03
2023-08-12T16:23:35.128Z,100721.97
2023-08-12T16:26:04.257Z,100709.31
2023-08-12T16:28:33.178Z,100717.19
2023-08-12T16:31:03.153Z,100716.75
2023-08-12T16:33:33.396Z,100711.16
2023-08-12T16:36:02.443Z,100717.00
2023-08-12T16:38:31.248Z,100717.66
2023-08-12T16:41:00.335Z,100717.88
2023-08-12T16:43:29.187Z,100711.03
2023-08-12T16:45:58.529Z,100715.34
2023-08-12T16:48:27.391Z,100705.56
2023-08-12T16:50:57.837Z,100708.44
2023-08-12T16:53:26.739Z,100708.13
2023-08-12T16:55:56.230Z,100703.06
2023-08-12T16:58:25.118Z,100710.03
2023-08-12T17:00:54.141Z,100709.97
2023-08-12T17:03:23.054Z,100707.53
2023-08-12T17:05:52.166Z,100715.47
2023-08-12T17:08:22.251Z,100706.47
2023-08-12T17:10:51.342Z,100708.88
2023-08-12T17:13:21.288Z,100710.78
2023-08-12T17:15:50.463Z,100705.06
2023-08-12T17:18:19.187Z,100700.22
2023-08-12T17:20:48.273Z,100713.34
2023-08-12T17:23:17.018Z,100700.75
2023-08-12T17:25:47.559Z,100704.41
2023-08-12T17:28:16.524Z,100707.72
2023-08-12T17:30:45.649Z,100707.38
2023-08-12T17:33:14.413Z,100709.72
2023-08-12T17:35:43.742Z,100712.44
2023-08-12T17:38:14.121Z,100705.28
2023-08-12T17:40:43.251Z,100706.13
2023-08-12T17:43:14.392Z,100708.34
2023-08-12T17:45:44.816Z,100707.47
2023-08-12T17:48:13.650Z,100710.78
2023-08-12T17:50:42.746Z,100708.72
2023-08-12T17:53:11.543Z,100707.34
2023-08-12T17:55:40.823Z,100701.59
2023-08-12T17:58:09.623Z,100694.75
2023-08-12T18:00:40.262Z,100703.72
2023-08-12T18:03:09.357Z,100712.94
2023-08-12T18:05:38.634Z,100696.91
2023-08-12T18:08:07.951Z,100706.50
2023-08-12T18:10:37.012Z,100695.00
2023-08-12T18:13:06.000Z,100703.38
2023-08-12T18:15:35.125Z,100704.63
2023-08-12T18:18:05.656Z,100704.34
2023-08-12T18:20:34.875Z,100703.88
2023-08-12T18:23:04.204Z,100702.19
2023-08-12T18:25:33.549Z,100701.22
2023-08-12T18:28:02.828Z,100705.44
2023-08-12T18:30:33.419Z,100712.66
2023-08-12T18:33:04.284Z,100709.28
2023-08-12T18:35:35.155Z,100710.81
2023-08-12T18:38:04.067Z,100705.47
2023-08-12T18:40:34.018Z,100704.81
2023-08-12T18:43:03.046Z,100702.16
2023-08-12T18:45:32.150Z,100702.66
2023-08-12T18:48:01.016Z,100709.53
2023-08-12T18:50:30.160Z,100709.88
2023-08-12T18:53:00.326Z,100718.06
2023-08-12T18:55:29.715Z,100716.75
2023-08-12T18:57:58.514Z,100715.78
2023-08-12T19:00:27.782Z,100706.22
2023-08-12T19:02:56.582Z,100708.38
2023-08-12T19:05:25.793Z,100708.91
2023-08-12T19:07:54.635Z,100712.41
2023-08-12T19:10:25.410Z,100706.72
2023-08-12T19:12:54.130Z,100717.59
2023-08-12T19:15:23.477Z,100709.75
2023-08-12T19:17:52.404Z,100713.44
2023-08-12T19:20:21.520Z,100714.75
2023-08-12T19:22:50.640Z,100711.91
2023-08-12T19:25:19.935Z,100714.09
2023-08-12T19:27:50.209Z,100715.09
2023-08-12T19:30:20.872Z,100709.41
2023-08-12T19:32:51.149Z,100715.09
2023-08-12T19:35:21.547Z,100713.09
2023-08-12T19:37:52.995Z,100707.72
2023-08-12T19:40:22.443Z,100708.88
2023-08-12T19:42:52.630Z,100705.69
2023-08-12T19:45:22.122Z,100703.34
2023-08-12T19:47:51.016Z,100705.50
2023-08-12T19:50:20.404Z,100709.81
2023-08-12T19:52:50.428Z,100704.97
2023-08-12T19:55:19.878Z,100710.63
2023-08-12T19:57:48.651Z,100712.13
2023-08-12T20:00:19.178Z,100711.44
2023-08-12T20:02:49.044Z,100712.59
2023-08-12T20:05:20.492Z,100711.91
2023-08-12T20:07:50.680Z,100711.22
2023-08-12T20:10:22.634Z,100708.69
2023-08-12T20:12:51.853Z,100706.19
2023-08-12T20:15:22.534Z,100705.28
2023-08-12T20:17:51.513Z,100703.78
2023-08-12T20:20:20.875Z,100706.91
2023-08-12T20:23:03.895Z,100703.69
2023-08-12T20:25:37.885Z,100700.97
2023-08-12T20:28:08.303Z,100703.59
2023-08-12T20:30:38.970Z,100697.88
2023-08-12T20:33:08.260Z,100698.84
2023-08-12T20:35:37.487Z,100705.88
2023-08-12T20:38:06.780Z,100701.53
2023-08-12T20:40:35.907Z,100698.66
2023-08-12T20:43:05.364Z,100708.44
2023-08-12T20:45:34.504Z,100696.88
2023-08-12T20:48:05.288Z,100698.94
2023-08-12T20:50:34.818Z,100692.25
2023-08-12T20:53:04.297Z,100699.25
2023-08-12T20:55:33.820Z,100702.94
2023-08-12T20:58:03.015Z,100697.69
2023-08-12T21:00:32.091Z,100703.09
2023-08-12T21:03:01.002Z,100701.59
2023-08-12T21:05:32.892Z,100698.69
2023-08-12T21:08:01.798Z,100701.91
2023-08-12T21:10:30.925Z,100701.91
2023-08-12T21:12:59.769Z,100702.53
2023-08-12T21:15:28.863Z,100695.97
2023-08-12T21:17:57.784Z,100697.44
2023-08-12T21:20:26.928Z,100699.84
2023-08-12T21:22:57.071Z,100692.16
2023-08-12T21:25:26.195Z,100682.25
2023-08-12T21:27:55.045Z,100680.44
2023-08-12T21:30:24.541Z,100680.44
2023-08-12T21:32:53.457Z,100681.25
2023-08-12T21:35:22.690Z,100682.13
2023-08-12T21:37:51.487Z,100675.94
2023-08-12T21:40:21.944Z,100678.59
2023-08-12T21:42:50.798Z,100679.88
2023-08-12T21:45:20.075Z,100672.03
2023-08-12T21:47:49.189Z,100672.88
2023-08-12T21:50:18.588Z,100671.66
2023-08-12T21:52:47.467Z,100678.69
2023-08-12T21:55:17.034Z,100687.66
2023-08-12T21:57:47.180Z,100687.78
2023-08-12T22:00:17.308Z,100691.22
2023-08-12T22:02:48.716Z,100684.09
2023-08-12T22:05:18.224Z,100687.91
2023-08-12T22:07:47.407Z,100690.88
2023-08-12T22:10:16.529Z,100682.50
2023-08-12T22:12:48.037Z,100688.78
2023-08-12T22:15:17.294Z,100679.44
2023-08-12T22:17:48.974Z,100684.50
2023-08-12T22:20:18.708Z,100686.34
2023-08-12T22:22:47.547Z,100676.81
2023-08-12T22:25:16.764Z,100683.69
2023-08-12T22:27:46.947Z,100679.38
2023-08-12T22:30:16.053Z,100676.25
2023-08-12T22:32:45.210Z,100680.63
2023-08-12T22:35:14.608Z,100670.69
2023-08-12T22:37:43.451Z,100664.13
2023-08-12T22:40:12.830Z,100660.09
2023-08-12T22:42:41.672Z,100660.09
2023-08-12T22:45:12.605Z,100656.75
2023-08-12T22:47:41.467Z,100658.44
2023-08-12T22:50:13.417Z,100655.97
2023-08-12T22:52:43.329Z,100659.03
2023-08-12T22:55:13.287Z,100645.88
2023-08-12T22:57:42.145Z,100649.94
2023-08-12T23:00:13.895Z,100643.88
2023-08-12T23:02:42.886Z,100642.78
2023-08-12T23:05:12.208Z,100640.81
2023-08-12T23:07:41.030Z,100636.59
2023-08-12T23:10:12.276Z,100636.19
2023-08-12T23:12:41.110Z,100632.00
2023-08-12T23:15:12.604Z,100626.69
2023-08-12T23:17:41.573Z,100628.50
2023-08-12T23:20:11.691Z,100620.91
2023-08-12T23:22:40.651Z,100618.16
2023-08-12T23:25:10.988Z,100621.94
2023-08-12T23:27:39.826Z,100614.38
2023-08-12T23:30:15.071Z,100620.56
2023-08-12T23:32:45.520Z,100612.72
2023-08-12T23:35:19.158Z,100611.78
2023-08-12T23:37:49.173Z,100607.84
2023-08-12T23:40:18.369Z,100617.63
2023-08-12T23:42:47.287Z,100626.56
2023-08-12T23:45:16.494Z,100633.88
2023-08-12T23:47:47.037Z,100621.53
2023-08-12T23:50:16.355Z,100618.19
2023-08-12T23:57:17.467Z,100609.25
2023-08-12T23:59:46.252Z,100608.28
